Tiempo atmosférico en la estación meteorológica de Jalance, València/Valencia (372 m.)



Fecha
DESCASC
Temp. máxima en grados centígrados (hora)
DESCASC
Temp. mínima en grados centígrados (hora)
DESCASC
Temp. media en grados centígrados
DESCASC
Racha de viento máxima en m/sg (hora)
DESCASC
Velocidad máxima media en intervalos de 10 minutos(hora)
DESCASC
Precipitaciones diarias en mm
DESCASC
Precipitaciones de 00:00 a 06:00 en mm
DESCASC
Precipitaciones de 06:00 a 12:00 en mm
DESCASC
Precipitaciones de 12:00 a 18:00 en mm
DESCASC
Precipitaciones de 18:00 a 24:00 en mm
DESCASC
08-12-2019 14.4 (15:50) 3.4 (00:50) 8.9 9.72 (15:30) 4.17 (15:20) 0 0 0 0 0
07-12-2019 11.8 (16:20) 3.8 (23:59) 7.8 3.06 (00:10) 1.67 (00:10) 0 0 0 0 0
06-12-2019 12.6 (15:40) 7.3 (04:40) 10 3.61 (23:59) 2.5 (23:59) 0.2 0 0.2 0 0
05-12-2019 11.5 (13:50) 8.4 (00:00) 9.9 7.22 (19:00) 2.78 (17:50) 18.6 15.4 2 0.6 0.6
04-12-2019 12.5 (14:30) 6.7 (00:00) 9.6 6.39 (08:40) 3.33 (06:20) 18 9.2 2 0.2 6.6
03-12-2019 9.9 (01:30) 6.5 (00:00) 8.2 8.89 (15:30) 3.61 (15:20) 3.6 0.4 0.4 0.2 2.6
02-12-2019 11.1 (04:30) 7.5 (00:00) 9.3 7.78 (15:30) 3.33 (15:30) 9.2 0.4 2.8 2.8 3.2
01-12-2019 15.2 (14:50) 6.5 (00:00) 10.8 9.72 (12:20) 3.89 (12:10) 0 0 0 0 0
30-11-2019 19.9 (15:20) 9.2 (00:00) 14.5 8.61 (10:30) 3.61 (13:20) 0 0 0 0 0
29-11-2019 17.5 (15:10) 12 (00:00) 14.8 13.61 (04:20) 6.67 (08:00) 0 0 0 0 0
28-11-2019 13.6 (23:50) 11 (07:40) 12.3 10.28 (03:00) 4.17 (09:50) 0 0 0 0 0
27-11-2019 17.9 (14:30) 11.9 (00:00) 14.9 12.78 (05:50) 5 (05:50) 0 0 0 0 0
26-11-2019 17 (15:50) 12.3 (00:00) 14.7 12.22 (21:50) 5 (21:50) 0 0 0 0 0
25-11-2019 15.6 (16:20) 9.3 (05:10) 12.5 10 (05:50) 4.44 (13:40) 0 0 0 0 0
24-11-2019 13.3 (15:40) 6.9 (00:00) 10.1 13.89 (15:10) 5.83 (13:00) 0 0 0 0 0
23-11-2019 13.4 (15:50) 7.4 (00:00) 10.4 17.22 (11:30) 7.78 (10:20) 1.8 1 0.8 0 0
22-11-2019 16.2 (13:30) 4.6 (00:00) 10.4 15 (17:30) 5.28 (23:50) 2.6 0 0 1.8 0.8
21-11-2019 14.7 (16:20) 5.6 (00:00) 10.1 10 (05:10) 3.61 (05:10) 0.2 0.2 0 0 0
20-11-2019 13.9 (15:30) -0.8 (08:00) 6.5 6.11 (19:50) 3.06 (19:40) 0.2 0 0 0 0.2
19-11-2019 12.7 (15:00) -1.3 (-00:0) 5.7 8.89 (14:30) 3.89 (14:40) 0 0 0 0 0
18-11-2019 13 (14:00) 1.9 (00:00) 7.4 7.78 (14:10) 4.17 (13:40) 0.4 0.2 0.2 0 0
17-11-2019 13.7 (14:30) 4.6 (00:00) 9.1 12.22 (10:00) 5.28 (09:50) 7.6 0 0 0 7.6
16-11-2019 13.2 (16:10) 0.9 (00:00) 7 10.28 (22:00) 4.17 (16:30) 0 0 0 0 0
15-11-2019 12.1 (15:10) 6.2 (00:00) 9.2 13.06 (05:30) 5.83 (00:30) 0 0 0 0 0
14-11-2019 14.3 (12:10) 6.8 (00:00) 10.6 16.11 (11:20) 7.78 (12:20) 2.4 0 0 0.2 2.2
13-11-2019 18.7 (15:40) 10.2 (00:00) 14.5 19.72 (05:40) 8.06 (05:30) 0.4 0.4 0 0 0
12-11-2019 17.5 (15:00) 6.3 (00:00) 11.9 11.94 (22:40) 5 (16:30) 0 0 0 0 0
11-11-2019 14.6 (15:40) 6.1 (04:10) 10.4 12.78 (13:00) 5.28 (11:30) 0 0 0 0 0
10-11-2019 13 (14:00) 6.1 (00:00) 9.5 15.56 (15:20) 6.67 (04:00) 6.8 6.6 0 0.2 0

Gráficas

Temp. máximas Temp. mínimas Temp. medias Precipitaciones Rachas de viento máximas Velocidades máximas media en intervalos de 10 minutos

Datos horarios

Fecha y hora oficial Temperatura (ºC) Velocidad del viento (km/h) Dirección del viento Racha (km/h) Dirección de racha Precipitación (mm) Presión (hPa) Tendencia (hPa) Humedad (%)
2019-12-09 23:00:00 10.7 6 Sudoeste 22 Sudoeste 0 -- -- 59
2019-12-09 22:00:00 11.3 7 Oeste 24 Oeste 0 -- -- 58
2019-12-09 21:00:00 11.6 7 Oeste 25 Sudoeste 0 -- -- 63
2019-12-09 20:00:00 12 6 Sudoeste 35 Oeste 0 -- -- 61
2019-12-09 19:00:00 12.4 7 Noroeste 26 Oeste 0 -- -- 60
2019-12-09 18:00:00 12.6 10 Noroeste 35 Oeste 0 -- -- 63
2019-12-09 17:00:00 13.2 9 Norte 44 Noroeste 0 -- -- 59
2019-12-09 16:00:00 13.7 12 Noroeste 35 Noroeste 0 -- -- 60
2019-12-09 15:00:00 14.4 9 Norte 32 Noroeste 0 -- -- 58
2019-12-09 14:00:00 13.9 13 Norte 27 Sudeste 0 -- -- 59
2019-12-09 13:00:00 13.6 8 Este 21 Norte 0 -- -- 60
2019-12-09 12:00:00 12.5 7 Sur 23 Sur 0 -- -- 65
2019-12-09 11:00:00 11.9 6 Sudeste 21 Sudeste 0 -- -- 69
2019-12-09 10:00:00 10.9 7 Sur 24 Sudeste 0 -- -- 73
2019-12-09 09:00:00 8.7 2 Este 12 Este 0 -- -- 85
2019-12-09 08:00:00 9.2 4 Nordeste 17 Nordeste 0 -- -- 82
2019-12-09 07:00:00 9.9 4 Norte 18 Este 0 -- -- 81
2019-12-09 06:00:00 10.3 5 Sudeste 27 Noroeste 0 -- -- 81
2019-12-09 05:00:00 10.6 9 Norte 26 Noroeste 0 -- -- 80
2019-12-09 04:00:00 10.6 9 Norte 27 Noroeste 0 -- -- 82
2019-12-09 03:00:00 10.4 4 Este 29 Noroeste 0 -- -- 82
2019-12-09 02:00:00 10.6 6 Sudeste 18 Este 0 -- -- 82
2019-12-09 01:00:00 10.9 9 Sudeste 21 Sudeste 0 -- -- 81
2019-12-09 00:00:00 11.4 6 Noroeste 29 Sudeste 0 -- -- 80
2019-12-08 23:00:00 11.4 10 Sudeste 23 Noroeste 0 -- -- 78
2019-12-08 22:00:00 11.7 9 Nordeste 28 Oeste 0 -- -- 75
2019-12-08 21:00:00 11.1 4 Sudeste 24 Este 0 -- -- 75
2019-12-08 20:00:00 12.5 8 Este 31 Noroeste 0 -- -- 68
2019-12-08 19:00:00 12.8 11 Noroeste 33 Noroeste 0 -- -- 63
2019-12-08 18:00:00 13.1 6 Norte 28 Noroeste 0 -- -- 63
2019-12-08 17:00:00 13.2 6 Este 19 Noroeste 0 -- -- 68
2019-12-08 16:00:00 14.3 10 Nordeste 35 Noroeste 0 -- -- 65
2019-12-08 15:00:00 13.8 7 Este 16 Sudeste 0 -- -- 67
2019-12-08 14:00:00 11.5 3 Sudeste 11 Sudeste 0 -- -- 76
2019-12-08 13:00:00 10.5 5 Sudeste 11 Sur 0 -- -- 79
2019-12-08 12:00:00 8.6 3 Sudeste 9 Este 0 -- -- 86
2019-12-08 11:00:00 6.4 0 Calma 4 Sur 0 -- -- 95
2019-12-08 10:00:00 5.6 0 Calma 4 Nordeste 0 -- -- 97
2019-12-08 09:00:00 5.2 0 Calma 3 Norte 0 -- -- 97
2019-12-08 08:00:00 5.2 0 Calma 2 Este 0 -- -- 98
2019-12-08 07:00:00 4.9 0 Calma 2 Sudeste 0 -- -- 97
2019-12-08 06:00:00 4.6 0 Calma 4 Sur 0 -- -- 98
2019-12-08 05:00:00 4.2 0 Calma 4 Sudeste 0 -- -- 97
2019-12-08 04:00:00 3.8 0 Calma 3 Sudeste 0 -- -- 97
2019-12-08 03:00:00 3.6 0 Calma 3 Sudeste 0 -- -- 97
2019-12-08 02:00:00 3.5 0 Calma 2 Sudeste 0 -- -- 97
2019-12-08 01:00:00 3.4 0 Calma 3 Noroeste 0 -- -- 97
2019-12-08 00:00:00 3.8 0 Calma 3 Sudeste 0 -- -- 96
2019-12-07 23:00:00 4.7 0 Calma 2 Sudoeste 0 -- -- 96
2019-12-07 22:00:00 4.9 0 Calma -- -- 0 -- -- 95
2019-12-07 21:00:00 5.6 0 Calma -- -- 0 -- -- 95
2019-12-07 20:00:00 6.5 0 Calma 2 Sudoeste 0 -- -- 94
2019-12-07 19:00:00 7.7 0 Calma 2 Oeste 0 -- -- 93
2019-12-07 18:00:00 9 0 Calma 2 Sudeste 0 -- -- 91
2019-12-07 17:00:00 10.8 0 Calma 3 Sudoeste 0 -- -- 87
2019-12-07 16:00:00 11.5 3 Oeste 8 Este 0 -- -- 86
2019-12-07 15:00:00 10.4 3 Norte 10 Este 0 -- -- 89
2019-12-07 14:00:00 9.1 0 Calma 7 Norte 0 -- -- 93
2019-12-07 13:00:00 8 4 Norte 8 Norte 0 -- -- 94
2019-12-07 12:00:00 7.8 3 Norte 6 Norte 0 -- -- 95
2019-12-07 11:00:00 7.3 0 Calma 4 Norte 0 -- -- 97
2019-12-07 10:00:00 6.9 0 Calma 5 Nordeste 0 -- -- 97
2019-12-07 09:00:00 6.6 0 Calma 6 Nordeste 0 -- -- 97
2019-12-07 08:00:00 6.9 0 Calma 5 Noroeste 0 -- -- 97
2019-12-07 07:00:00 7 2 Norte 4 Nordeste 0 -- -- 96
2019-12-07 06:00:00 7.5 0 Calma 5 Noroeste 0 -- -- 96
2019-12-07 05:00:00 7.3 2 Noroeste 4 Noroeste 0 -- -- 96
2019-12-07 04:00:00 8 0 Calma 6 Noroeste 0 -- -- 94
2019-12-07 03:00:00 8.1 0 Calma 6 Norte 0 -- -- 93
2019-12-07 02:00:00 8.9 4 Norte 8 Norte 0 -- -- 94
2019-12-07 01:00:00 8.9 4 Norte 11 Norte 0 -- -- 94
2019-12-07 00:00:00 8.8 9 Norte 13 Noroeste 0 -- -- 96
2019-12-06 23:00:00 8.5 0 Calma 3 Norte 0 -- -- 96
2019-12-06 22:00:00 8 0 Calma 3 Sudeste 0 -- -- 95
2019-12-06 21:00:00 8.7 0 Calma 3 Sudoeste 0 -- -- 93
2019-12-06 20:00:00 10.3 0 Calma 4 Oeste 0 -- -- 90
2019-12-06 19:00:00 11.4 0 Calma 5 Noroeste 0 -- -- 91
2019-12-06 18:00:00 11.9 0 Calma 7 Noroeste 0 -- -- 88
2019-12-06 17:00:00 12.4 3 Noroeste 7 Noroeste 0 -- -- 86
2019-12-06 16:00:00 12.5 0 Calma 5 Sur 0 -- -- 83
2019-12-06 15:00:00 12.4 0 Calma 6 Noroeste 0 -- -- 84
2019-12-06 14:00:00 12.1 4 Norte 6 Norte 0 -- -- 85
2019-12-06 13:00:00 11.4 0 Calma 4 Oeste 0 -- -- 90
2019-12-06 12:00:00 10.7 0 Calma 8 Norte 0 -- -- 94
2019-12-06 11:00:00 9.5 0 Calma 8 Norte 0 -- -- 96
2019-12-06 10:00:00 8.4 2 Este 6 Sudeste 0 -- -- 97
2019-12-06 09:00:00 8 0 Calma 4 Noroeste 0.2 -- -- 97
2019-12-06 08:00:00 7.8 0 Calma 2 Sudoeste 0 -- -- 97
2019-12-06 07:00:00 7.7 0 Calma 2 Este 0 -- -- 97
2019-12-06 06:00:00 7.7 0 Calma 2 Noroeste 0 -- -- 96
2019-12-06 05:00:00 7.4 0 Calma 4 Este 0 -- -- 96
2019-12-06 04:00:00 7.6 2 Norte 4 Sur 0 -- -- 96
2019-12-06 03:00:00 8 0 Calma 2 Sudoeste 0 -- -- 95
2019-12-06 02:00:00 8.5 0 Calma 5 Oeste 0 -- -- 93
2019-12-06 01:00:00 9.5 0 Calma 7 Norte 0 -- -- 93
2019-12-06 00:00:00 9.5 2 Noroeste 5 Oeste 0 -- -- 93
2019-12-05 23:00:00 10 3 Norte 6 Noroeste 0 -- -- 93
2019-12-05 22:00:00 10.3 3 Norte 11 Norte 0 -- -- 91
2019-12-05 21:00:00 10.4 5 Noroeste 10 Norte 0 -- -- 92
2019-12-05 20:00:00 10.5 6 Norte 12 Norte 0 -- -- 91
2019-12-05 19:00:00 10.7 9 Norte 26 Norte 0.6 -- -- 91
2019-12-05 18:00:00 10.6 7 Noroeste 16 Noroeste 0 -- -- 91
2019-12-05 17:00:00 10.8 8 Noroeste 15 Noroeste 0.4 -- -- 91
2019-12-05 16:00:00 11.2 7 Noroeste 13 Noroeste 0 -- -- 89
2019-12-05 15:00:00 11.3 7 Norte 13 Noroeste 0.2 -- -- 90
2019-12-05 14:00:00 11.5 6 Norte 15 Norte 0 -- -- 87
2019-12-05 13:00:00 11.4 4 Norte 12 Norte 0 -- -- 87
2019-12-05 12:00:00 10.5 7 Norte 12 Noroeste 0 -- -- 89
2019-12-05 11:00:00 10.1 4 Noroeste 7 Oeste 0 -- -- 90
2019-12-05 10:00:00 9.6 3 Oeste 12 Noroeste 0.2 -- -- 92
2019-12-05 09:00:00 9.7 4 Norte 14 Noroeste 0.8 -- -- 92
2019-12-05 08:00:00 9.7 7 Norte 13 Norte 0.8 -- -- 93
2019-12-05 07:00:00 9.6 3 Norte 13 Norte 0.2 -- -- 92
2019-12-05 06:00:00 9.6 6 Noroeste 15 Noroeste 0 -- -- 92
2019-12-05 05:00:00 9.2 6 Noroeste 13 Norte 0.2 -- -- 95
2019-12-05 04:00:00 8.6 0 Calma 5 Noroeste 2.4 -- -- 96
2019-12-05 03:00:00 8.4 0 Calma 8 Sudoeste 3.2 -- -- 95
2019-12-05 02:00:00 8.5 2 Sur 17 Norte 6.2 -- -- 95
2019-12-05 01:00:00 8.5 3 Norte 13 Norte 3.4 -- -- 95
2019-12-05 00:00:00 8.7 0 Calma 5 Noroeste 1.6 -- -- 95
2019-12-04 23:00:00 8.8 2 Sudoeste 4 Noroeste 1.4 -- -- 94
2019-12-04 22:00:00 9 0 Calma 8 Oeste 1.8 -- -- 93
2019-12-04 21:00:00 9.4 4 Noroeste 9 Noroeste 1.6 -- -- 90
2019-12-04 20:00:00 10.1 0 Calma 9 Noroeste 0.2 -- -- 89
2019-12-04 19:00:00 10.2 0 Calma 3 Oeste 0 -- -- 87
2019-12-04 18:00:00 10.8 0 Calma 8 Oeste 0 -- -- 84
2019-12-04 17:00:00 11.6 3 Noroeste 8 Sudoeste 0 -- -- 77
2019-12-04 16:00:00 12.1 3 Sudoeste 6 Sur 0 -- -- 73
2019-12-04 15:00:00 12.1 0 Calma 11 Sudoeste 0 -- -- 71
2019-12-04 14:00:00 11.5 6 Oeste 13 Oeste 0 -- -- 72
2019-12-04 13:00:00 10.7 5 Norte 13 Norte 0.2 -- -- 78
2019-12-04 12:00:00 9.5 0 Calma 4 Este 0 -- -- 92
2019-12-04 11:00:00 8.4 2 Noroeste 6 Nordeste 0 -- -- 93
2019-12-04 10:00:00 8.3 2 Norte 12 Noroeste 0.2 -- -- 91
2019-12-04 09:00:00 8.8 7 Norte 23 Noroeste 0.2 -- -- 86
2019-12-04 08:00:00 8.8 6 Norte 20 Noroeste 0.6 -- -- 90
2019-12-04 07:00:00 8.3 9 Norte 20 Norte 1 -- -- 93
2019-12-04 06:00:00 8.1 3 Norte 11 Norte 0.4 -- -- 95
2019-12-04 05:00:00 8 2 Noroeste 6 Oeste 0 -- -- 96
2019-12-04 04:00:00 7.6 2 Noroeste 8 Norte 1.2 -- -- 96
2019-12-04 03:00:00 7.3 3 Norte 10 Norte 2.8 -- -- 95
2019-12-04 02:00:00 7.1 4 Norte 10 Norte 2.6 -- -- 95
2019-12-04 01:00:00 7 2 Norte 9 Norte 2.2 -- -- 95
2019-12-04 00:00:00 6.7 2 Norte 9 Noroeste 1 -- -- 94
2019-12-03 23:00:00 6.7 3 Noroeste 6 Noroeste 0.6 -- -- 94
2019-12-03 22:00:00 6.6 0 Calma 5 Sur 0.2 -- -- 93
2019-12-03 21:00:00 6.6 0 Calma 5 Oeste 0.2 -- -- 92
2019-12-03 20:00:00 7.1 5 Noroeste 18 Noroeste 0.6 -- -- 86
2019-12-03 19:00:00 7.6 9 Noroeste 14 Norte 0 -- -- 82
2019-12-03 18:00:00 7.6 6 Noroeste 18 Norte 0 -- -- 83
2019-12-03 17:00:00 7.7 6 Norte 24 Norte 0 -- -- 82
2019-12-03 16:00:00 7.2 8 Norte 32 Norte 0 -- -- 88
2019-12-03 15:00:00 7.2 9 Noroeste 25 Norte 0 -- -- 89
2019-12-03 14:00:00 7.3 6 Norte 28 Norte 0.2 -- -- 86
2019-12-03 13:00:00 7.6 7 Norte 28 Norte 0 -- -- 85
2019-12-03 12:00:00 7.6 9 Norte 22 Norte 0 -- -- 88
2019-12-03 11:00:00 7.7 7 Norte 21 Noroeste 0 -- -- 90
2019-12-03 10:00:00 7.9 6 Norte 16 Norte 0 -- -- 89
2019-12-03 09:00:00 7.9 8 Noroeste 19 Noroeste 0 -- -- 89
2019-12-03 08:00:00 8 7 Norte 19 Norte 0 -- -- 91
2019-12-03 07:00:00 8.3 9 Norte 21 Nordeste 0.4 -- -- 90
2019-12-03 06:00:00 9 10 Norte 23 Nordeste 0.4 -- -- 90
2019-12-03 05:00:00 9.3 8 Norte 17 Norte 0 -- -- 89
2019-12-03 04:00:00 9.1 7 Norte 17 Norte 0 -- -- 89
2019-12-03 03:00:00 9.7 8 Norte 30 Nordeste 0 -- -- 84
2019-12-03 02:00:00 9.9 6 Norte 15 Nordeste 0 -- -- 86
2019-12-03 01:00:00 9.7 6 Norte 18 Norte 0 -- -- 88
2019-12-03 00:00:00 9.7 7 Norte 13 Noroeste 0 -- -- 88
2019-12-02 23:00:00 9.4 4 Norte 13 Noroeste 0 -- -- 89
2019-12-02 22:00:00 9.5 5 Noroeste 13 Nordeste 0.4 -- -- 89
2019-12-02 21:00:00 9.3 6 Norte 16 Nordeste 1.6 -- -- 90
2019-12-02 20:00:00 9.3 7 Norte 18 Norte 0.8 -- -- 90
2019-12-02 19:00:00 9.3 8 Norte 21 Norte 0.4 -- -- 90
2019-12-02 18:00:00 9.4 8 Norte 24 Nordeste 0.4 -- -- 90
2019-12-02 17:00:00 9.5 9 Norte 28 Nordeste 0.4 -- -- 89
2019-12-02 16:00:00 9.5 8 Norte 28 Norte 0.4 -- -- 89
2019-12-02 15:00:00 9.9 5 Nordeste 23 Nordeste 0.4 -- -- 87
2019-12-02 14:00:00 9.9 9 Norte 24 Norte 0.4 -- -- 86
2019-12-02 13:00:00 9.7 6 Norte 24 Este 0.8 -- -- 89
2019-12-02 12:00:00 9.3 5 Noroeste 14 Noroeste 1 -- -- 90
2019-12-02 11:00:00 9.1 4 Noroeste 10 Norte 0.4 -- -- 87
2019-12-02 10:00:00 9 6 Noroeste 19 Norte 0 -- -- 86
2019-12-02 09:00:00 8.4 0 Calma 6 Noroeste 0 -- -- 92
2019-12-02 08:00:00 8.3 0 Calma 5 Oeste 0 -- -- 91
2019-12-02 07:00:00 8.7 0 Calma 18 Noroeste 1.4 -- -- 87
2019-12-02 06:00:00 9.7 5 Noroeste 12 Este 0.4 -- -- 76
2019-12-02 05:00:00 11 4 Nordeste 26 Noroeste 0 -- -- 64
2019-12-02 04:00:00 10.9 4 Oeste 11 Norte 0 -- -- 70
2019-12-02 03:00:00 11 4 Norte 17 Norte 0 -- -- 78
2019-12-02 02:00:00 10.4 7 Norte 13 Norte 0 -- -- 85
2019-12-02 01:00:00 8 0 Calma 6 Noroeste 0 -- -- 84
2019-12-02 00:00:00 7.5 0 Calma 4 Este 0 -- -- 82
2019-12-01 23:00:00 7 0 Calma 5 Noroeste 0 -- -- 82
2019-12-01 22:00:00 7 2 Norte 12 Norte 0 -- -- 81
2019-12-01 21:00:00 6.8 0 Calma 6 Norte 0 -- -- 80
2019-12-01 20:00:00 7.1 2 Sur 8 Oeste 0 -- -- 78
2019-12-01 19:00:00 8.7 0 Calma 2 Noroeste 0 -- -- 71
2019-12-01 18:00:00 11.1 2 Sur 11 Noroeste 0 -- -- 62
2019-12-01 17:00:00 13.8 5 Noroeste 21 Oeste 0 -- -- 51
2019-12-01 16:00:00 15 5 Norte 33 Noroeste 0 -- -- 48
2019-12-01 15:00:00 15.1 6 Noroeste 26 Noroeste 0 -- -- 47
2019-12-01 14:00:00 14.6 10 Norte 25 Norte 0 -- -- 49
2019-12-01 13:00:00 14.2 10 Oeste 35 Sudoeste 0 -- -- 53
2019-12-01 12:00:00 13.5 12 Sur 31 Sudoeste 0 -- -- 57
2019-12-01 11:00:00 13.4 8 Este 22 Sudoeste 0 -- -- 61
2019-12-01 10:00:00 11.7 5 Este 12 Sur 0 -- -- 70
2019-12-01 09:00:00 11.4 4 Sudeste 10 Sudeste 0 -- -- 69
2019-12-01 08:00:00 11.6 2 Sur 16 Sur 0 -- -- 71
2019-12-01 07:00:00 12.5 3 Sudeste 24 Noroeste 0 -- -- 75
2019-12-01 06:00:00 13.6 9 Noroeste 27 Noroeste 0 -- -- 72
2019-12-01 05:00:00 12.4 2 Noroeste 9 Norte 0 -- -- 81
2019-12-01 04:00:00 11 3 Sudeste 8 Este 0 -- -- 85
2019-12-01 03:00:00 9.2 0 Calma 8 Este 0 -- -- 90
2019-12-01 02:00:00 9 0 Calma 5 Sur 0 -- -- 91
2019-12-01 01:00:00 8.5 0 Calma 3 Sur 0 -- -- 91
2019-12-01 00:00:00 9.2 0 Calma 4 Este 0 -- -- 88
2019-11-30 23:00:00 10.5 0 Calma 5 Sudoeste 0 -- -- 84
2019-11-30 22:00:00 12.3 2 Sur 7 Oeste 0 -- -- 78
2019-11-30 21:00:00 13.4 3 Sudeste 9 Este 0 -- -- 75
2019-11-30 20:00:00 14.3 3 Sudeste 19 Noroeste 0 -- -- 71
2019-11-30 19:00:00 12.5 0 Calma 3 Sudoeste 0 -- -- 77
2019-11-30 18:00:00 14.8 0 Calma 5 Sudoeste 0 -- -- 69
2019-11-30 17:00:00 17.4 0 Calma 11 Norte 0 -- -- 60
2019-11-30 16:00:00 19.4 3 Noroeste 21 Oeste 0 -- -- 53
2019-11-30 15:00:00 19.5 5 Este 21 Sur 0 -- -- 53
2019-11-30 14:00:00 18.7 8 Sudeste 26 Sur 0 -- -- 55
2019-11-30 13:00:00 18.4 8 Sudeste 25 Sudoeste 0 -- -- 57
2019-11-30 12:00:00 17.8 10 Sudoeste 28 Sudoeste 0 -- -- 58
2019-11-30 11:00:00 16.8 10 Sur 31 Sur 0 -- -- 64
2019-11-30 10:00:00 15.4 10 Sur 19 Sur 0 -- -- 70
2019-11-30 09:00:00 13.5 3 Sur 11 Sur 0 -- -- 76
2019-11-30 08:00:00 13.3 4 Sudoeste 12 Sudoeste 0 -- -- 77
2019-11-30 07:00:00 12.9 3 Este 17 Noroeste 0 -- -- 79
2019-11-30 06:00:00 13 6 Noroeste 20 Oeste 0 -- -- 78
2019-11-30 05:00:00 13.4 4 Este 12 Oeste 0 -- -- 77
2019-11-30 04:00:00 14 4 Oeste 16 Oeste 0 -- -- 75
2019-11-30 03:00:00 14.3 4 Oeste 21 Sudoeste 0 -- -- 74
2019-11-30 02:00:00 14.4 6 Oeste 14 Noroeste 0 -- -- 74
2019-11-30 01:00:00 14.3 3 Sudoeste 14 Oeste 0 -- -- 76
2019-11-30 00:00:00 14.5 2 Sudoeste 15 Oeste 0 -- -- 76
2019-11-29 23:00:00 14.7 5 Oeste 13 Oeste 0 -- -- 76
2019-11-29 22:00:00 15.1 2 Norte 17 Noroeste 0 -- -- 75
2019-11-29 21:00:00 15.2 7 Noroeste 25 Noroeste 0 -- -- 70
2019-11-29 20:00:00 15.4 8 Oeste 26 Noroeste 0 -- -- 72
2019-11-29 19:00:00 15.6 10 Noroeste 21 Noroeste 0 -- -- 70
2019-11-29 18:00:00 15.9 8 Oeste 22 Noroeste 0 -- -- 70
2019-11-29 17:00:00 15.9 5 Noroeste 23 Sur 0 -- -- 70
2019-11-29 16:00:00 17.2 5 Noroeste 23 Noroeste 0 -- -- 66
2019-11-29 15:00:00 17.3 6 Este 26 Noroeste 0 -- -- 67
2019-11-29 14:00:00 16.6 5 Este 21 Norte 0 -- -- 69
2019-11-29 13:00:00 15 5 Sur 14 Noroeste 0 -- -- 71
2019-11-29 12:00:00 14.9 4 Nordeste 12 Sudeste 0 -- -- 70
2019-11-29 11:00:00 14.8 5 Oeste 30 Norte 0 -- -- 69
2019-11-29 10:00:00 14.1 12 Este 43 Noroeste 0 -- -- 70
2019-11-29 09:00:00 14.1 19 Noroeste 48 Noroeste 0 -- -- 69
2019-11-29 08:00:00 14.1 24 Noroeste 46 Noroeste 0 -- -- 68
2019-11-29 07:00:00 14.1 17 Noroeste 38 Noroeste 0 -- -- 67
2019-11-29 06:00:00 13.9 18 Noroeste 37 Noroeste 0 -- -- 67
2019-11-29 05:00:00 13.7 14 Norte 49 Noroeste 0 -- -- 65
2019-11-29 04:00:00 13.8 21 Noroeste 45 Noroeste 0 -- -- 64
2019-11-29 03:00:00 12.3 12 Norte 40 Noroeste 0 -- -- 69
2019-11-29 02:00:00 13.4 15 Noroeste 42 Noroeste 0 -- -- 65
2019-11-29 01:00:00 13.4 8 Sudeste 31 Noroeste 0 -- -- 65
2019-11-29 00:00:00 13.5 6 Nordeste 26 Noroeste 0 -- -- 64
2019-11-28 23:00:00 12.9 8 Este 22 Este 0 -- -- 67
2019-11-28 22:00:00 12 5 Este 19 Noroeste 0 -- -- 71
2019-11-28 21:00:00 12.1 4 Este 27 Norte 0 -- -- 70
2019-11-28 20:00:00 11.7 7 Sudoeste 18 Sur 0 -- -- 74
2019-11-28 19:00:00 12.7 7 Este 30 Noroeste 0 -- -- 68
2019-11-28 18:00:00 12.7 6 Sudeste 29 Este 0 -- -- 69
2019-11-28 17:00:00 13.1 5 Este 33 Oeste 0 -- -- 68
2019-11-28 16:00:00 13.3 6 Nordeste 23 Norte 0 -- -- 67
2019-11-28 15:00:00 13.1 5 Sudeste 17 Norte 0 -- -- 67
2019-11-28 14:00:00 13.3 6 Este 23 Nordeste 0 -- -- 68
2019-11-28 13:00:00 13.2 3 Nordeste 27 Nordeste 0 -- -- 69
2019-11-28 12:00:00 12.7 6 Noroeste 27 Noroeste 0 -- -- 70
2019-11-28 11:00:00 12.3 8 Norte 31 Oeste 0 -- -- 71
2019-11-28 10:00:00 12.1 10 Noroeste 35 Oeste 0 -- -- 71
2019-11-28 09:00:00 11.3 9 Este 21 Este 0 -- -- 75
2019-11-28 08:00:00 11.1 7 Este 22 Sudeste 0 -- -- 74
2019-11-28 07:00:00 11.7 7 Sudeste 15 Sudeste 0 -- -- 72
2019-11-28 06:00:00 12.2 6 Sudeste 31 Norte 0 -- -- 69
2019-11-28 05:00:00 12.2 11 Noroeste 35 Oeste 0 -- -- 68
2019-11-28 04:00:00 12.3 12 Noroeste 33 Noroeste 0 -- -- 67
2019-11-28 03:00:00 12.5 15 Noroeste 37 Oeste 0 -- -- 65
2019-11-28 02:00:00 12.7 13 Oeste 32 Noroeste 0 -- -- 64
2019-11-28 01:00:00 12.3 6 Norte 23 Noroeste 0 -- -- 67
2019-11-28 00:00:00 11.9 3 Sudeste 21 Oeste 0 -- -- 70
2019-11-27 23:00:00 12.6 4 Sudeste 25 Noroeste 0 -- -- 69
2019-11-27 22:00:00 12.8 3 Este 30 Oeste 0 -- -- 69
2019-11-27 21:00:00 13.6 10 Noroeste 37 Noroeste 0 -- -- 64
2019-11-27 20:00:00 13.9 10 Noroeste 27 Noroeste 0 -- -- 63
2019-11-27 19:00:00 14.1 7 Noroeste 33 Noroeste 0 -- -- 60
2019-11-27 18:00:00 14.4 5 Noroeste 24 Noroeste 0 -- -- 59
2019-11-27 17:00:00 15.3 5 Noroeste 31 Oeste 0 -- -- 55
2019-11-27 16:00:00 16.2 13 Noroeste 34 Noroeste 0 -- -- 48
2019-11-27 15:00:00 17.3 14 Noroeste 31 Noroeste 0 -- -- 47
2019-11-27 14:00:00 17.4 9 Sur 39 Noroeste 0 -- -- 49
2019-11-27 06:00:00 -- -- -- -- -- -- -- -- --
2019-11-27 05:00:00 15.1 10 Noroeste 32 Noroeste 0 -- -- 70
2019-11-27 04:00:00 15.8 9 Oeste 33 Norte 0 -- -- 71
2019-11-27 03:00:00 16.2 5 Oeste 28 Norte 0 -- -- 69
2019-11-27 02:00:00 16.3 9 Norte 32 Oeste 0 -- -- 70
2019-11-27 01:00:00 16 10 Norte 39 Noroeste 0 -- -- 70
2019-11-27 00:00:00 15.7 7 Este 20 Noroeste 0 -- -- 71
2019-11-26 23:00:00 15.7 9 Nordeste 28 Noroeste 0 -- -- 72
2019-11-26 22:00:00 16.2 13 Noroeste 44 Noroeste 0 -- -- 70
2019-11-26 21:00:00 15.3 9 Este 21 Oeste 0 -- -- 74
2019-11-26 20:00:00 14.6 5 Este 13 Nordeste 0 -- -- 80
2019-11-26 19:00:00 15.2 0 Calma 12 Noroeste 0 -- -- 79
2019-11-26 18:00:00 16 3 Sur 9 Este 0 -- -- 76
2019-11-26 17:00:00 16.6 4 Nordeste 21 Oeste 0 -- -- 73
2019-11-26 16:00:00 17 10 Noroeste 23 Noroeste 0 -- -- 69
2019-11-26 15:00:00 16.6 6 Este 12 Sudeste 0 -- -- 69
2019-11-26 14:00:00 16.1 10 Noroeste 28 Noroeste 0 -- -- 69
2019-11-26 13:00:00 15.9 8 Norte 27 Norte 0 -- -- 69
2019-11-26 12:00:00 16.6 13 Noroeste 35 Noroeste 0 -- -- 61
2019-11-26 11:00:00 15.6 9 Noroeste 30 Noroeste 0 -- -- 63
2019-11-26 10:00:00 14.4 8 Norte 22 Norte 0 -- -- 68
2019-11-26 09:00:00 13.4 2 Sudeste 12 Sur 0 -- -- 79
2019-11-26 08:00:00 13.3 5 Sur 13 Sudeste 0 -- -- 79
2019-11-26 07:00:00 13.2 2 Sur 12 Sudeste 0 -- -- 80
2019-11-26 06:00:00 13.5 5 Sudeste 15 Sur 0 -- -- 78
2019-11-26 05:00:00 12.9 6 Sudeste 13 Sudeste 0 -- -- 82
2019-11-26 04:00:00 12.4 3 Sudeste 6 Sudeste 0 -- -- 85
2019-11-26 03:00:00 12.5 0 Calma 6 Este 0 -- -- 85
2019-11-26 02:00:00 13.2 3 Sudeste 13 Sudeste 0 -- -- 82
2019-11-26 01:00:00 13.5 3 Noroeste 14 Noroeste 0 -- -- 81
2019-11-26 00:00:00 12.6 4 Sudeste 10 Este 0 -- -- 85
2019-11-25 23:00:00 12.8 2 Sudoeste 12 Norte 0 -- -- 84
2019-11-25 22:00:00 13.2 0 Calma 8 Nordeste 0 -- -- 83
2019-11-25 21:00:00 13.1 2 Oeste 18 Norte 0 -- -- 84
2019-11-25 20:00:00 14.5 7 Noroeste 21 Norte 0 -- -- 78
2019-11-25 19:00:00 14.6 5 Norte 19 Noroeste 0 -- -- 80
2019-11-25 18:00:00 15.1 2 Sur 18 Norte 0 -- -- 79
2019-11-25 17:00:00 15.5 4 Norte 31 Noroeste 0 -- -- 77
2019-11-25 16:00:00 15.5 12 Noroeste 30 Norte 0 -- -- 77
2019-11-25 15:00:00 14.9 10 Noroeste 32 Noroeste 0 -- -- 78
2019-11-25 14:00:00 14.5 11 Noroeste 30 Noroeste 0 -- -- 80
2019-11-25 13:00:00 14.6 5 Oeste 19 Noroeste 0 -- -- 76
2019-11-25 12:00:00 13.8 5 Sudeste 18 Sudeste 0 -- -- 77
2019-11-25 11:00:00 13 7 Sudeste 23 Este 0 -- -- 80
2019-11-25 10:00:00 12.5 5 Norte 20 Noroeste 0 -- -- 78
2019-11-25 09:00:00 12.1 4 Noroeste 24 Noroeste 0 -- -- 76
2019-11-25 08:00:00 12 5 Sudeste 18 Nordeste 0 -- -- 74
2019-11-25 07:00:00 11.5 6 Este 31 Nordeste 0 -- -- 76
2019-11-25 06:00:00 11.6 7 Este 36 Norte 0 -- -- 73
2019-11-25 05:00:00 9.5 2 Sudeste 6 Este 0 -- -- 78
2019-11-25 04:00:00 9.8 5 Norte 14 Norte 0 -- -- 74
2019-11-25 03:00:00 10.3 3 Sudoeste 12 Sudeste 0 -- -- 73
2019-11-25 02:00:00 9.6 4 Sur 12 Este 0 -- -- 73
2019-11-25 01:00:00 9.7 5 Sudeste 31 Oeste 0 -- -- 71
2019-11-25 00:00:00 10.4 9 Noroeste 32 Noroeste 0 -- -- 67
2019-11-24 23:00:00 10.5 15 Noroeste 44 Noroeste 0 -- -- 66
2019-11-24 22:00:00 10.3 12 Norte 35 Oeste 0 -- -- 66
2019-11-24 21:00:00 8.1 3 Sur 12 Sur 0 -- -- 73
2019-11-24 20:00:00 9.4 3 Este 14 Noroeste 0 -- -- 65
2019-11-24 19:00:00 10.6 6 Oeste 23 Noroeste 0 -- -- 59
2019-11-24 18:00:00 10.5 4 Este 30 Noroeste 0 -- -- 59
2019-11-24 17:00:00 12.2 5 Noroeste 33 Nordeste 0 -- -- 56
2019-11-24 16:00:00 13.3 9 Noroeste 50 Noroeste 0 -- -- 52
2019-11-24 15:00:00 13.1 19 Noroeste 48 Noroeste 0 -- -- 55
2019-11-24 14:00:00 12.9 15 Noroeste 43 Noroeste 0 -- -- 55
2019-11-24 13:00:00 12.1 21 Noroeste 44 Noroeste 0 -- -- 57
2019-11-24 12:00:00 11.2 12 Noroeste 39 Sudoeste 0 -- -- 59
2019-11-24 11:00:00 10.2 17 Noroeste 39 Noroeste 0 -- -- 62
2019-11-24 10:00:00 9.5 9 Norte 33 Noroeste 0 -- -- 63
2019-11-24 09:00:00 8.2 8 Este 25 Noroeste 0 -- -- 67
2019-11-24 08:00:00 6.9 8 Oeste 32 Sudoeste 0 -- -- 71
2019-11-24 07:00:00 7.1 12 Sudoeste 30 Sudoeste 0 -- -- 71
2019-11-24 06:00:00 7.1 3 Sudeste 25 Sudeste 0 -- -- 71
2019-11-24 05:00:00 7.6 7 Sur 29 Noroeste 0 -- -- 69
2019-11-24 04:00:00 8 8 Oeste 37 Oeste 0 -- -- 67
2019-11-24 03:00:00 8.6 9 Oeste 33 Noroeste 0 -- -- 64
2019-11-24 02:00:00 8.7 6 Norte 21 Noroeste 0 -- -- 64
2019-11-24 01:00:00 9.4 6 Norte 35 Sudoeste 0 -- -- 63
2019-11-24 00:00:00 10 12 Oeste 36 Noroeste 0 -- -- 60
2019-11-23 23:00:00 9.9 12 Noroeste 35 Oeste 0 -- -- 61
2019-11-23 22:00:00 10.5 15 Noroeste 36 Noroeste 0 -- -- 61
2019-11-23 21:00:00 11.5 17 Noroeste 42 Noroeste 0 -- -- 55
2019-11-23 20:00:00 11.7 11 Noroeste 29 Oeste 0 -- -- 55
2019-11-23 19:00:00 10.6 4 Nordeste 21 Noroeste 0 -- -- 59
2019-11-23 18:00:00 12.1 9 Noroeste 33 Norte 0 -- -- 55
2019-11-23 17:00:00 13.2 7 Noroeste 36 Noroeste 0 -- -- 51
2019-11-23 16:00:00 13.2 15 Noroeste 39 Noroeste 0 -- -- 50
2019-11-23 15:00:00 12.8 15 Oeste 55 Noroeste 0 -- -- 50
2019-11-23 14:00:00 13 21 Noroeste 48 Noroeste 0 -- -- 49
2019-11-23 13:00:00 12.3 18 Noroeste 56 Noroeste 0 -- -- 55
2019-11-23 12:00:00 11.8 21 Noroeste 62 Noroeste 0 -- -- 59
2019-11-23 11:00:00 10.9 22 Noroeste 58 Oeste 0 -- -- 64
2019-11-23 10:00:00 10.6 24 Noroeste 59 Noroeste 0 -- -- 65
2019-11-23 09:00:00 10.3 18 Noroeste 43 Noroeste 0 -- -- 70
2019-11-23 08:00:00 10.1 13 Oeste 36 Noroeste 0 -- -- 73
2019-11-23 07:00:00 7.9 6 Nordeste 28 Noroeste 0.8 -- -- 84
2019-11-23 06:00:00 8.6 7 Oeste 53 Oeste 0.6 -- -- 78
2019-11-23 05:00:00 10.8 14 Noroeste 32 Noroeste 0.4 -- -- 66
2019-11-23 04:00:00 11.9 19 Noroeste 43 Noroeste 0 -- -- 69
2019-11-23 03:00:00 11.8 17 Noroeste 39 Noroeste 0 -- -- 68
2019-11-23 02:00:00 12.3 11 Nordeste 34 Noroeste 0 -- -- 69
2019-11-23 01:00:00 12.8 13 Noroeste 40 Oeste 0 -- -- 67
2019-11-23 00:00:00 13.3 14 Noroeste 33 Noroeste 0 -- -- 67
2019-11-22 23:00:00 13.4 9 Este 21 Norte 0 -- -- 71
2019-11-22 22:00:00 12.1 3 Norte 9 Este 0 -- -- 87
2019-11-22 21:00:00 12.3 3 Noroeste 14 Este 0 -- -- 88
2019-11-22 20:00:00 12.7 3 Sudeste 13 Sur 0.6 -- -- 88
2019-11-22 19:00:00 13.5 6 Sur 27 Sudoeste 0.2 -- -- 81
2019-11-22 18:00:00 13.5 8 Sur 54 Sudeste 0.2 -- -- 81
2019-11-22 17:00:00 12.9 5 Sudeste 28 Sur 0.6 -- -- 87
2019-11-22 16:00:00 13.5 9 Sur 28 Sudeste 0.8 -- -- 81
2019-11-22 15:00:00 15.4 9 Sudeste 31 Sudoeste 0 -- -- 70
2019-11-22 14:00:00 15.6 10 Sur 50 Sudeste 0.2 -- -- 67
2019-11-22 13:00:00 15.6 6 Sudeste 25 Sudoeste 0 -- -- 66
2019-11-22 12:00:00 12.3 2 Noroeste 5 Noroeste 0 -- -- 80
2019-11-22 11:00:00 8.6 0 Calma 4 Sudeste 0 -- -- 95
2019-11-22 10:00:00 6.6 0 Calma 2 Sudoeste 0 -- -- 96
2019-11-22 09:00:00 5.5 0 Calma 2 Este 0 -- -- 96
2019-11-22 08:00:00 4.8 0 Calma 2 Nordeste 0 -- -- 95
2019-11-22 07:00:00 4.6 0 Calma 2 Nordeste 0 -- -- 95
2019-11-22 06:00:00 5.1 0 Calma 2 Noroeste 0 -- -- 95
2019-11-22 05:00:00 5.5 0 Calma 3 Nordeste 0 -- -- 93
2019-11-22 04:00:00 6.7 0 Calma 3 Este 0 -- -- 92
2019-11-22 03:00:00 7.9 0 Calma 9 Este 0 -- -- 90
2019-11-22 02:00:00 7.7 2 Sudoeste 6 Sur 0 -- -- 95
2019-11-22 01:00:00 7.6 0 Calma 4 Sudeste 0 -- -- 92
2019-11-22 00:00:00 8.8 0 Calma 4 Sudeste 0 -- -- 92
2019-11-21 23:00:00 9.3 0 Calma 5 Sudeste 0 -- -- 91
2019-11-21 22:00:00 9.7 2 Norte 4 Noroeste 0 -- -- 90
2019-11-21 21:00:00 10.1 0 Calma 4 Sudoeste 0 -- -- 87
2019-11-21 20:00:00 10.7 0 Calma 5 Sudeste 0 -- -- 82
2019-11-21 19:00:00 11.2 0 Calma 5 Sudoeste 0 -- -- 76
2019-11-21 18:00:00 12.1 0 Calma 4 Oeste 0 -- -- 72
2019-11-21 17:00:00 13.6 0 Calma 19 Noroeste 0 -- -- 68
2019-11-21 16:00:00 14.5 4 Noroeste 21 Oeste 0 -- -- 60
2019-11-21 15:00:00 14.2 5 Sudeste 14 Sur 0 -- -- 61
2019-11-21 14:00:00 13.7 6 Sur 17 Sur 0 -- -- 63
2019-11-21 13:00:00 13.1 4 Sur 19 Sudeste 0 -- -- 67
2019-11-21 12:00:00 12.1 4 Este 22 Norte 0 -- -- 70
2019-11-21 11:00:00 10.8 9 Norte 19 Noroeste 0 -- -- 75
2019-11-21 10:00:00 7.9 0 Calma 5 Nordeste 0 -- -- 87
2019-11-21 09:00:00 7.2 0 Calma 4 Sudoeste 0 -- -- 89
2019-11-21 08:00:00 -- -- -- -- -- -- -- -- --
2019-11-21 07:00:00 -- -- -- -- -- -- -- -- --
2019-11-21 06:00:00 -- -- -- -- -- -- -- -- --
2019-11-21 05:00:00 -- -- -- -- -- -- -- -- --
2019-11-21 04:00:00 -- -- -- -- -- -- -- -- --
2019-11-21 03:00:00 -- -- -- -- -- -- -- -- --
2019-11-21 02:00:00 -- -- -- -- -- -- -- -- --
2019-11-21 01:00:00 -- -- -- -- -- -- -- -- --
2019-11-21 00:00:00 -- -- -- -- -- -- -- -- --
2019-11-20 23:00:00 -- -- -- -- -- -- -- -- --
2019-11-20 22:00:00 -- -- -- -- -- -- -- -- --
2019-11-20 21:00:00 -- -- -- -- -- -- -- -- --
2019-11-20 20:00:00 -- -- -- -- -- -- -- -- --
2019-11-20 19:00:00 9.5 2 Noroeste 8 Sudoeste 0 -- -- 63
2019-11-20 18:00:00 10.5 0 Calma 7 Oeste 0 -- -- 55
2019-11-20 17:00:00 12.6 0 Calma 11 Noroeste 0 -- -- 50
2019-11-20 16:00:00 12.8 0 Calma 9 Oeste 0 -- -- 58
2019-11-20 15:00:00 13.4 0 Calma 13 Norte 0 -- -- 54
2019-11-20 14:00:00 12.5 4 Norte 11 Nordeste 0 -- -- 56
2019-11-20 13:00:00 11.3 4 Norte 9 Noroeste 0 -- -- 58
2019-11-20 12:00:00 9.8 2 Sudoeste 8 Este 0 -- -- 63
2019-11-20 11:00:00 7.3 0 Calma 6 Este 0 -- -- 71
2019-11-20 10:00:00 4.4 0 Calma 3 Este 0 -- -- 84
2019-11-20 09:00:00 1.1 0 Calma 3 Este 0 -- -- 96
2019-11-20 08:00:00 -0.8 0 Calma 2 Sur 0 -- -- 94
2019-11-20 07:00:00 -0.1 0 Calma 2 Nordeste 0 -- -- 93
2019-11-20 06:00:00 0.5 0 Calma 3 Oeste 0 -- -- 93
2019-11-20 05:00:00 1.1 0 Calma 3 Este 0 -- -- 92
2019-11-20 04:00:00 1.6 0 Calma 2 Sur 0 -- -- 91
2019-11-20 03:00:00 2.7 0 Calma 2 Norte 0 -- -- 89
2019-11-20 02:00:00 3.6 0 Calma 4 Noroeste 0 -- -- 87
2019-11-20 01:00:00 3.9 0 Calma 4 Sudeste 0 -- -- 85
2019-11-20 00:00:00 4.5 0 Calma 3 Norte 0 -- -- 82
2019-11-19 23:00:00 4.9 0 Calma 6 Sudoeste 0 -- -- 79
2019-11-19 22:00:00 6.4 0 Calma 7 Este 0 -- -- 73
2019-11-19 21:00:00 8.1 3 Sudeste 15 Oeste 0 -- -- 66
2019-11-19 20:00:00 8.4 4 Sudeste 21 Noroeste 0 -- -- 64
2019-11-19 19:00:00 10.2 9 Noroeste 24 Noroeste 0 -- -- 56
2019-11-19 18:00:00 9.1 2 Sur 14 Sur 0 -- -- 61
2019-11-19 17:00:00 10.8 3 Norte 19 Noroeste 0 -- -- 53
2019-11-19 16:00:00 12.3 6 Norte 27 Noroeste 0 -- -- 50
2019-11-19 15:00:00 12.7 9 Noroeste 32 Norte 0 -- -- 48
2019-11-19 14:00:00 12.5 8 Este 21 Este 0 -- -- 50
2019-11-19 13:00:00 11.2 6 Nordeste 21 Sudoeste 0 -- -- 52
2019-11-19 12:00:00 10.2 6 Sudeste 19 Sudeste 0 -- -- 53
2019-11-19 11:00:00 6.7 3 Nordeste 13 Nordeste 0 -- -- 69
2019-11-19 10:00:00 3.5 3 Nordeste 6 Nordeste 0 -- -- 81
2019-11-19 09:00:00 0.4 0 Calma 4 Este 0 -- -- 94
2019-11-19 08:00:00 -1.3 0 Calma 5 Noroeste 0 -- -- 93
2019-11-19 07:00:00 -1.1 2 Este 7 Norte 0 -- -- 91
2019-11-19 06:00:00 -0.3 0 Calma 8 Norte 0 -- -- 90
2019-11-19 05:00:00 0.6 3 Noroeste 9 Norte 0 -- -- 91
2019-11-19 04:00:00 -0.3 0 Calma 5 Oeste 0 -- -- 91
2019-11-19 03:00:00 0.9 2 Noroeste 6 Noroeste 0 -- -- 91
2019-11-19 02:00:00 0.4 0 Calma 5 Sudeste 0 -- -- 89
2019-11-19 01:00:00 1 0 Calma 4 Oeste 0 -- -- 88
2019-11-19 00:00:00 1.9 0 Calma 4 Noroeste 0 -- -- 84
2019-11-18 23:00:00 2.7 2 Este 6 Norte 0 -- -- 81
2019-11-18 22:00:00 3.8 0 Calma 6 Noroeste 0 -- -- 76
2019-11-18 21:00:00 4.9 3 Sudeste 6 Este 0 -- -- 72
2019-11-18 20:00:00 6 0 Calma 8 Noroeste 0 -- -- 68
2019-11-18 19:00:00 8.9 8 Noroeste 15 Oeste 0 -- -- 53
2019-11-18 18:00:00 10.5 7 Oeste 19 Oeste 0 -- -- 46
2019-11-18 17:00:00 11.3 5 Noroeste 19 Noroeste 0 -- -- 43
2019-11-18 16:00:00 12.6 10 Norte 26 Noroeste 0 -- -- 41
2019-11-18 15:00:00 12.7 12 Noroeste 28 Norte 0 -- -- 42
2019-11-18 14:00:00 13 13 Noroeste 27 Norte 0 -- -- 45
2019-11-18 13:00:00 12.1 11 Noroeste 20 Norte 0 -- -- 52
2019-11-18 12:00:00 11.4 5 Sudoeste 23 Noroeste 0.2 -- -- 62
2019-11-18 11:00:00 10.6 4 Sudeste 13 Sudeste 0 -- -- 63
2019-11-18 10:00:00 7.8 3 Nordeste 9 Este 0 -- -- 79
2019-11-18 09:00:00 5.4 0 Calma 6 Nordeste 0 -- -- 89
2019-11-18 08:00:00 4.8 0 Calma 17 Oeste 0 -- -- 88
2019-11-18 07:00:00 5.6 3 Noroeste 17 Sudoeste 0 -- -- 88
2019-11-18 06:00:00 7.7 9 Sudoeste 24 Sudoeste 0 -- -- 82
2019-11-18 05:00:00 6.8 3 Norte 12 Nordeste 0 -- -- 89
2019-11-18 04:00:00 6.7 2 Este 10 Norte 0 -- -- 91
2019-11-18 03:00:00 7.2 0 Calma 6 Nordeste 0 -- -- 92
2019-11-18 02:00:00 7.9 2 Norte 14 Sur 0 -- -- 90
2019-11-18 01:00:00 8.2 10 Sudeste 20 Sur 0.2 -- -- 89
2019-11-18 00:00:00 8.3 14 Sur 31 Sur 1.6 -- -- 90
2019-11-17 23:00:00 8.4 3 Sur 18 Oeste 5.4 -- -- 88
2019-11-17 22:00:00 9.5 6 Oeste 24 Sudoeste 0.6 -- -- 79
2019-11-17 21:00:00 9.8 2 Sur 15 Nordeste 0 -- -- 72
2019-11-17 20:00:00 9.8 5 Sudeste 21 Nordeste 0 -- -- 71
2019-11-17 19:00:00 10.1 4 Sur 40 Noroeste 0 -- -- 68
2019-11-17 18:00:00 10.2 16 Noroeste 40 Noroeste 0 -- -- 67
2019-11-17 17:00:00 10.3 13 Noroeste 32 Noroeste 0 -- -- 67
2019-11-17 16:00:00 11.1 9 Norte 33 Noroeste 0 -- -- 65
2019-11-17 15:00:00 12.8 12 Noroeste 39 Noroeste 0 -- -- 52
2019-11-17 14:00:00 13.3 8 Norte 22 Norte 0 -- -- 48
2019-11-17 13:00:00 11.8 10 Sudeste 27 Sur 0 -- -- 51
2019-11-17 12:00:00 10.3 8 Norte 30 Noroeste 0 -- -- 57
2019-11-17 11:00:00 9 10 Norte 36 Noroeste 0 -- -- 58
2019-11-17 10:00:00 6.9 14 Noroeste 44 Noroeste 0 -- -- 63
2019-11-17 09:00:00 6 10 Nordeste 40 Noroeste 0 -- -- 63
2019-11-17 08:00:00 4.9 9 Noroeste 30 Noroeste 0 -- -- 65
2019-11-17 07:00:00 5.4 8 Noroeste 26 Norte 0 -- -- 62
2019-11-17 06:00:00 5 5 Nordeste 23 Noroeste 0 -- -- 64
2019-11-17 05:00:00 5.4 8 Noroeste 25 Noroeste 0 -- -- 64
2019-11-17 04:00:00 5.8 6 Oeste 33 Noroeste 0 -- -- 63
2019-11-17 03:00:00 5.9 17 Noroeste 36 Noroeste 0 -- -- 64
2019-11-17 02:00:00 5.7 3 Sur 20 Noroeste 0 -- -- 65
2019-11-17 01:00:00 6.5 5 Noroeste 28 Noroeste 0 -- -- 62
2019-11-17 00:00:00 7.3 6 Noroeste 26 Oeste 0 -- -- 58
2019-11-16 23:00:00 7.8 5 Sudoeste 26 Norte 0 -- -- 55
2019-11-16 22:00:00 9.6 12 Noroeste 37 Noroeste 0 -- -- 48
2019-11-16 21:00:00 9.5 8 Oeste 28 Oeste 0 -- -- 51
2019-11-16 20:00:00 9.2 14 Noroeste 28 Noroeste 0 -- -- 50
2019-11-16 19:00:00 10 11 Oeste 29 Oeste 0 -- -- 48
2019-11-16 18:00:00 10.8 14 Oeste 33 Oeste 0 -- -- 47
2019-11-16 17:00:00 11.7 14 Noroeste 32 Noroeste 0 -- -- 41
2019-11-16 16:00:00 13.1 8 Noroeste 28 Noroeste 0 -- -- 36
2019-11-16 15:00:00 12.8 11 Noroeste 26 Noroeste 0 -- -- 38
2019-11-16 14:00:00 12.1 10 Noroeste 32 Oeste 0 -- -- 44
2019-11-16 13:00:00 11 10 Noroeste 21 Noroeste 0 -- -- 50
2019-11-16 12:00:00 9.9 8 Noroeste 18 Oeste 0 -- -- 52
2019-11-16 11:00:00 8.6 6 Sudoeste 15 Sudoeste 0 -- -- 58
2019-11-16 10:00:00 5.5 3 Norte 12 Norte 0 -- -- 74
2019-11-16 09:00:00 2.6 9 Norte 14 Norte 0 -- -- 83
2019-11-16 08:00:00 1.1 2 Noroeste 8 Norte 0 -- -- 91
2019-11-16 07:00:00 0.9 0 Calma 4 Noroeste 0 -- -- 90
2019-11-16 06:00:00 1.9 0 Calma 5 Nordeste 0 -- -- 89
2019-11-16 05:00:00 2.3 0 Calma 4 Sudeste 0 -- -- 87
2019-11-16 04:00:00 3.9 2 Oeste 10 Oeste 0 -- -- 81
2019-11-16 03:00:00 5.4 5 Norte 25 Norte 0 -- -- 75
2019-11-16 02:00:00 6.6 10 Nordeste 34 Noroeste 0 -- -- 69
2019-11-16 01:00:00 6.8 5 Norte 22 Sudoeste 0 -- -- 68
2019-11-16 00:00:00 7.3 8 Noroeste 31 Oeste 0 -- -- 67
2019-11-15 23:00:00 8 14 Oeste 30 Sudoeste 0 -- -- 63
2019-11-15 22:00:00 8.3 5 Noroeste 27 Noroeste 0 -- -- 64
2019-11-15 21:00:00 8.5 10 Noroeste 27 Noroeste 0 -- -- 62
2019-11-15 20:00:00 8.8 6 Noroeste 24 Noroeste 0 -- -- 62
2019-11-15 19:00:00 9.3 8 Noroeste 33 Noroeste 0 -- -- 59
2019-11-15 18:00:00 9.6 14 Noroeste 28 Noroeste 0 -- -- 56
2019-11-15 17:00:00 10.3 12 Noroeste 31 Noroeste 0 -- -- 55
2019-11-15 16:00:00 10.9 5 Norte 27 Oeste 0 -- -- 53
2019-11-15 15:00:00 11.9 6 Norte 32 Norte 0 -- -- 51
2019-11-15 14:00:00 11.4 7 Nordeste 45 Noroeste 0 -- -- 51
2019-11-15 13:00:00 10.1 15 Noroeste 41 Noroeste 0 -- -- 55
2019-11-15 12:00:00 9.9 15 Noroeste 40 Noroeste 0 -- -- 59
2019-11-15 11:00:00 8.8 13 Noroeste 33 Noroeste 0 -- -- 63
2019-11-15 10:00:00 8 11 Noroeste 30 Noroeste 0 -- -- 68
2019-11-15 09:00:00 7 8 Noroeste 27 Noroeste 0 -- -- 72
2019-11-15 08:00:00 6.8 5 Oeste 39 Noroeste 0 -- -- 72
2019-11-15 07:00:00 7.1 15 Oeste 42 Oeste 0 -- -- 70
2019-11-15 06:00:00 7.3 14 Noroeste 47 Noroeste 0 -- -- 71
2019-11-15 05:00:00 7.8 15 Noroeste 36 Noroeste 0 -- -- 67
2019-11-15 04:00:00 8.1 12 Noroeste 40 Oeste 0 -- -- 66
2019-11-15 03:00:00 8 14 Noroeste 45 Oeste 0 -- -- 68
2019-11-15 02:00:00 7.8 14 Noroeste 36 Noroeste 0 -- -- 68
2019-11-15 01:00:00 8.3 13 Noroeste 42 Norte 0 -- -- 69
2019-11-15 00:00:00 8 12 Noroeste 36 Noroeste 1.6 -- -- 75
2019-11-14 23:00:00 8.8 22 Noroeste 50 Noroeste 0.2 -- -- 69
2019-11-14 22:00:00 9.6 17 Noroeste 43 Noroeste 0 -- -- 60
2019-11-14 21:00:00 9.4 15 Noroeste 40 Noroeste 0 -- -- 62
2019-11-14 20:00:00 9.1 11 Noroeste 37 Noroeste 0 -- -- 64
2019-11-14 19:00:00 7.7 6 Noroeste 22 Noroeste 0.4 -- -- 74
2019-11-14 18:00:00 9.3 6 Noroeste 31 Oeste 0.2 -- -- 63
2019-11-14 17:00:00 9.3 5 Sudeste 24 Sur 0 -- -- 64
2019-11-14 16:00:00 10 8 Sudeste 39 Noroeste 0 -- -- 60
2019-11-14 15:00:00 9.7 11 Noroeste 33 Noroeste 0 -- -- 58
2019-11-14 14:00:00 9.7 6 Norte 26 Noroeste 0 -- -- 61
2019-11-14 13:00:00 8.6 15 Noroeste 54 Norte 0 -- -- 74
2019-11-14 12:00:00 14.2 17 Norte 58 Norte 0 -- -- 58
2019-11-14 11:00:00 13.4 27 Noroeste 48 Noroeste 0 -- -- 59
2019-11-14 10:00:00 12.7 14 Noroeste 47 Noroeste 0 -- -- 62
2019-11-14 09:00:00 12 20 Noroeste 55 Noroeste 0 -- -- 60
2019-11-14 08:00:00 12.4 19 Noroeste 41 Noroeste 0 -- -- 66
2019-11-14 07:00:00 12.6 19 Noroeste 47 Noroeste 0 -- -- 67
2019-11-14 06:00:00 12.4 8 Nordeste 34 Norte 0 -- -- 70
2019-11-14 05:00:00 13.3 5 Nordeste 21 Nordeste 0 -- -- 70
2019-11-14 04:00:00 13.8 6 Este 18 Norte 0 -- -- 69
2019-11-14 03:00:00 12.8 4 Este 13 Este 0 -- -- 75
2019-11-14 02:00:00 11.3 0 Calma 11 Sudeste 0 -- -- 81
2019-11-14 01:00:00 9.9 3 Sudeste 10 Nordeste 0 -- -- 79
2019-11-14 00:00:00 10.2 0 Calma 6 Norte 0 -- -- 75
2019-11-13 23:00:00 11.2 2 Sudoeste 4 Nordeste 0 -- -- 72
2019-11-13 22:00:00 11 0 Calma 6 Sudoeste 0 -- -- 72
2019-11-13 21:00:00 11.9 0 Calma 18 Oeste 0 -- -- 66
2019-11-13 20:00:00 10.9 0 Calma 8 Oeste 0 -- -- 69
2019-11-13 19:00:00 13.3 5 Noroeste 11 Oeste 0 -- -- 57
2019-11-13 18:00:00 15.5 6 Oeste 18 Oeste 0 -- -- 51
2019-11-13 17:00:00 16.9 6 Noroeste 43 Noroeste 0 -- -- 48
2019-11-13 16:00:00 18.4 10 Noroeste 26 Oeste 0 -- -- 47
2019-11-13 15:00:00 16.9 8 Noroeste 17 Norte 0 -- -- 55
2019-11-13 14:00:00 17 15 Norte 47 Noroeste 0 -- -- 56
2019-11-13 13:00:00 16.9 16 Noroeste 46 Noroeste 0 -- -- 67
2019-11-13 12:00:00 16.3 14 Noroeste 45 Oeste 0 -- -- 70
2019-11-13 11:00:00 15.6 19 Noroeste 51 Noroeste 0 -- -- 70
2019-11-13 10:00:00 14.6 27 Noroeste 58 Noroeste 0 -- -- 72
2019-11-13 09:00:00 13.2 22 Noroeste 55 Noroeste 0 -- -- 77
2019-11-13 08:00:00 12.1 26 Noroeste 55 Noroeste 0 -- -- 80
2019-11-13 07:00:00 11.1 22 Noroeste 53 Noroeste 0 -- -- 82
2019-11-13 06:00:00 10.8 24 Noroeste 71 Noroeste 0.4 -- -- 81
2019-11-13 05:00:00 10.5 15 Noroeste 42 Norte 0 -- -- 78
2019-11-13 04:00:00 11.5 9 Este 33 Este 0 -- -- 67
2019-11-13 03:00:00 11.6 3 Nordeste 19 Oeste 0 -- -- 64
2019-11-13 02:00:00 11.5 8 Nordeste 33 Noroeste 0 -- -- 61
2019-11-13 01:00:00 11.7 5 Este 32 Noroeste 0 -- -- 61
2019-11-13 00:00:00 12.1 13 Noroeste 35 Noroeste 0 -- -- 60
2019-11-12 23:00:00 12 12 Oeste 43 Noroeste 0 -- -- 55
2019-11-12 22:00:00 10.3 3 Este 15 Norte 0 -- -- 57
2019-11-12 21:00:00 12.4 8 Noroeste 28 Sudoeste 0 -- -- 49
2019-11-12 20:00:00 12.5 11 Noroeste 32 Noroeste 0 -- -- 50
2019-11-12 19:00:00 12.9 12 Noroeste 28 Noroeste 0 -- -- 50
2019-11-12 18:00:00 14.3 10 Noroeste 29 Noroeste 0 -- -- 41
2019-11-12 17:00:00 15.5 13 Oeste 37 Noroeste 0 -- -- 40
2019-11-12 16:00:00 17.2 14 Noroeste 30 Noroeste 0 -- -- 36
2019-11-12 15:00:00 17.5 11 Noroeste 29 Noroeste 0 -- -- 35
2019-11-12 14:00:00 16.3 9 Oeste 27 Noroeste 0 -- -- 37
2019-11-12 13:00:00 14.6 10 Noroeste 27 Noroeste 0 -- -- 41
2019-11-12 12:00:00 13.5 7 Noroeste 27 Noroeste 0 -- -- 45
2019-11-12 11:00:00 12.3 7 Noroeste 30 Noroeste 0 -- -- 47
2019-11-12 10:00:00 10.8 5 Oeste 18 Noroeste 0 -- -- 49
2019-11-12 09:00:00 9.1 2 Este 10 Noroeste 0 -- -- 57
2019-11-12 08:00:00 6.5 4 Oeste 16 Sudoeste 0 -- -- 64
2019-11-12 07:00:00 7.6 11 Sudoeste 24 Sudoeste 0 -- -- 60
2019-11-12 06:00:00 7.7 15 Sudoeste 29 Sudoeste 0 -- -- 61
2019-11-12 05:00:00 7.9 3 Este 25 Noroeste 0 -- -- 62
2019-11-12 04:00:00 8.4 10 Sudoeste 27 Sudoeste 0 -- -- 60
2019-11-12 03:00:00 8.9 6 Oeste 22 Oeste 0 -- -- 57
2019-11-12 02:00:00 8 3 Oeste 17 Sudoeste 0 -- -- 63
2019-11-12 01:00:00 9.7 7 Noroeste 19 Sudoeste 0 -- -- 52
2019-11-12 00:00:00 10 8 Sudoeste 24 Sudoeste 0 -- -- 60
2019-11-11 23:00:00 10.4 9 Sudoeste 27 Sudoeste 0 -- -- 65
2019-11-11 22:00:00 10.9 15 Sudoeste 27 Sudoeste 0 -- -- 69
2019-11-11 21:00:00 11.7 10 Oeste 23 Oeste 0 -- -- 65
2019-11-11 20:00:00 12.1 3 Noroeste 25 Noroeste 0 -- -- 63
2019-11-11 19:00:00 12.7 12 Oeste 25 Noroeste 0 -- -- 58
2019-11-11 18:00:00 13.2 11 Noroeste 28 Oeste 0 -- -- 57
2019-11-11 17:00:00 13.7 6 Noroeste 33 Noroeste 0 -- -- 54
2019-11-11 16:00:00 14.5 9 Noroeste 26 Noroeste 0 -- -- 48
2019-11-11 15:00:00 14 9 Noroeste 33 Noroeste 0 -- -- 47
2019-11-11 14:00:00 13.2 11 Noroeste 37 Noroeste 0 -- -- 49
2019-11-11 13:00:00 12.4 16 Noroeste 46 Noroeste 0 -- -- 52
2019-11-11 12:00:00 11.8 17 Noroeste 43 Noroeste 0 -- -- 54
2019-11-11 11:00:00 10.3 4 Sudeste 22 Este 0 -- -- 60
2019-11-11 10:00:00 8.6 3 Sudeste 20 Noroeste 0 -- -- 63
2019-11-11 09:00:00 7.7 5 Este 14 Este 0 -- -- 64
2019-11-11 08:00:00 6.9 5 Sudeste 39 Noroeste 0 -- -- 67
2019-11-11 07:00:00 6.9 14 Noroeste 33 Noroeste 0 -- -- 64
2019-11-11 06:00:00 6.6 12 Oeste 45 Sudoeste 0 -- -- 65
2019-11-11 05:00:00 6.5 12 Oeste 30 Sudoeste 0 -- -- 65
2019-11-11 04:00:00 6.2 8 Oeste 28 Oeste 0 -- -- 64
2019-11-11 03:00:00 7 11 Sudoeste 26 Sudoeste 0 -- -- 60
2019-11-11 02:00:00 7.1 13 Sudoeste 30 Sudoeste 0 -- -- 61
2019-11-11 01:00:00 7.4 15 Sudoeste 28 Oeste 0 -- -- 60
2019-11-11 00:00:00 7.8 9 Sudoeste 36 Sudoeste 0 -- -- 61
2019-11-10 23:00:00 7.9 6 Oeste 26 Sudoeste 0 -- -- 64
2019-11-10 22:00:00 8.5 10 Oeste 21 Sudoeste 0 -- -- 64
2019-11-10 21:00:00 8.7 6 Sur 24 Oeste 0 -- -- 62
2019-11-10 20:00:00 9.5 6 Sudoeste 34 Noroeste 0 -- -- 58
2019-11-10 19:00:00 10.5 17 Oeste 45 Noroeste 0 -- -- 53
2019-11-10 18:00:00 11.8 16 Noroeste 35 Noroeste 0 -- -- 46
2019-11-10 17:00:00 12.6 11 Noroeste 31 Oeste 0 -- -- 44
2019-11-10 16:00:00 12.9 13 Oeste 56 Noroeste 0 -- -- 44
2019-11-10 15:00:00 13 19 Noroeste 51 Oeste 0 -- -- 45
2019-11-10 14:00:00 13 18 Oeste 49 Sudoeste 0.2 -- -- 44
2019-11-10 13:00:00 12.4 15 Oeste 37 Noroeste 0 -- -- 47
2019-11-10 12:00:00 11.4 14 Noroeste 38 Noroeste 0 -- -- 53
2019-11-10 11:00:00 10.5 14 Noroeste 40 Noroeste 0 -- -- 55
2019-11-10 10:00:00 9.4 15 Noroeste 37 Noroeste 0 -- -- 59
2019-11-10 09:00:00 7.4 4 Noroeste 28 Oeste 0 -- -- 70
2019-11-10 08:00:00 7.9 12 Oeste 32 Sudoeste 0 -- -- 67
2019-11-10 07:00:00 7.8 11 Oeste 28 Oeste 0 -- -- 74
2019-11-10 06:00:00 6.9 11 Sudoeste 29 Oeste 0 -- -- 83
2019-11-10 05:00:00 6.2 11 Sudoeste 35 Noroeste 4.4 -- -- 88
2019-11-10 04:00:00 8.6 24 Noroeste 44 Norte 1.4 -- -- 79
2019-11-10 03:00:00 10.7 11 Noroeste 45 Oeste 0.6 -- -- 77
2019-11-10 02:00:00 11.2 18 Oeste 50 Noroeste 0.2 -- -- 77
2019-11-10 01:00:00 11.3 10 Noroeste 35 Oeste 0 -- -- 76
2019-11-10 00:00:00 11.6 9 Norte 40 Norte 0 -- -- 72